sensor_id;sensor_type;location;lat;lon;timestamp;P1;durP1;ratioP1;P2;durP2;ratioP2
14294;SDS011;7231;59.370;18.016;2022-11-20T00:01:06;4.90;;;3.23;;
14294;SDS011;7231;59.370;18.016;2022-11-20T00:03:37;7.93;;;3.83;;
14294;SDS011;7231;59.370;18.016;2022-11-20T00:06:05;6.23;;;3.33;;
14294;SDS011;7231;59.370;18.016;2022-11-20T00:08:34;4.20;;;3.30;;
14294;SDS011;7231;59.370;18.016;2022-11-20T00:11:03;6.37;;;3.13;;
14294;SDS011;7231;59.370;18.016;2022-11-20T00:13:35;3.93;;;2.80;;
14294;SDS011;7231;59.370;18.016;2022-11-20T00:16:04;3.83;;;2.70;;
14294;SDS011;7231;59.370;18.016;2022-11-20T00:18:34;3.97;;;2.63;;
14294;SDS011;7231;59.370;18.016;2022-11-20T00:21:03;3.63;;;2.57;;
14294;SDS011;7231;59.370;18.016;2022-11-20T00:23:33;4.50;;;2.70;;
14294;SDS011;7231;59.370;18.016;2022-11-20T00:26:01;3.10;;;2.80;;
14294;SDS011;7231;59.370;18.016;2022-11-20T00:28:30;3.27;;;2.53;;
14294;SDS011;7231;59.370;18.016;2022-11-20T00:31:02;4.83;;;2.77;;
14294;SDS011;7231;59.370;18.016;2022-11-20T00:33:31;4.27;;;2.70;;
14294;SDS011;7231;59.370;18.016;2022-11-20T00:36:00;3.40;;;2.57;;
14294;SDS011;7231;59.370;18.016;2022-11-20T00:38:30;4.70;;;2.57;;
14294;SDS011;7231;59.370;18.016;2022-11-20T00:40:58;4.33;;;2.77;;
14294;SDS011;7231;59.370;18.016;2022-11-20T00:43:27;3.40;;;2.43;;
14294;SDS011;7231;59.370;18.016;2022-11-20T00:45:56;6.93;;;2.40;;
14294;SDS011;7231;59.370;18.016;2022-11-20T00:48:25;5.27;;;2.57;;
14294;SDS011;7231;59.370;18.016;2022-11-20T00:50:53;3.00;;;2.20;;
14294;SDS011;7231;59.370;18.016;2022-11-20T00:53:22;3.77;;;2.13;;
14294;SDS011;7231;59.370;18.016;2022-11-20T00:55:55;2.77;;;2.13;;
14294;SDS011;7231;59.370;18.016;2022-11-20T00:58:24;3.10;;;2.50;;
14294;SDS011;7231;59.370;18.016;2022-11-20T01:00:59;3.50;;;2.10;;
14294;SDS011;7231;59.370;18.016;2022-11-20T01:03:30;4.23;;;2.30;;
14294;SDS011;7231;59.370;18.016;2022-11-20T01:06:01;3.67;;;2.40;;
14294;SDS011;7231;59.370;18.016;2022-11-20T01:08:31;3.40;;;2.10;;
14294;SDS011;7231;59.370;18.016;2022-11-20T01:11:01;3.27;;;2.20;;
14294;SDS011;7231;59.370;18.016;2022-11-20T01:13:31;4.07;;;2.20;;
14294;SDS011;7231;59.370;18.016;2022-11-20T01:16:06;3.70;;;2.07;;
14294;SDS011;7231;59.370;18.016;2022-11-20T01:18:35;3.17;;;2.27;;
14294;SDS011;7231;59.370;18.016;2022-11-20T01:21:04;3.20;;;2.00;;
14294;SDS011;7231;59.370;18.016;2022-11-20T01:23:34;3.40;;;2.17;;
14294;SDS011;7231;59.370;18.016;2022-11-20T01:26:06;3.57;;;2.00;;
14294;SDS011;7231;59.370;18.016;2022-11-20T01:28:35;3.40;;;1.87;;
14294;SDS011;7231;59.370;18.016;2022-11-20T01:31:10;7.93;;;2.13;;
14294;SDS011;7231;59.370;18.016;2022-11-20T01:33:39;2.30;;;2.10;;
14294;SDS011;7231;59.370;18.016;2022-11-20T01:36:09;2.33;;;1.80;;
14294;SDS011;7231;59.370;18.016;2022-11-20T01:38:37;2.00;;;1.80;;
14294;SDS011;7231;59.370;18.016;2022-11-20T01:41:08;2.87;;;1.73;;
14294;SDS011;7231;59.370;18.016;2022-11-20T01:43:37;2.23;;;1.60;;
14294;SDS011;7231;59.370;18.016;2022-11-20T01:46:06;2.67;;;2.00;;
14294;SDS011;7231;59.370;18.016;2022-11-20T01:48:44;2.50;;;1.90;;
14294;SDS011;7231;59.370;18.016;2022-11-20T01:51:21;2.67;;;2.03;;
14294;SDS011;7231;59.370;18.016;2022-11-20T01:53:54;3.20;;;2.23;;
14294;SDS011;7231;59.370;18.016;2022-11-20T01:56:26;2.53;;;1.80;;
14294;SDS011;7231;59.370;18.016;2022-11-20T01:58:56;2.53;;;1.80;;
14294;SDS011;7231;59.370;18.016;2022-11-20T02:01:28;1.93;;;1.70;;
14294;SDS011;7231;59.370;18.016;2022-11-20T02:03:57;2.67;;;2.10;;
14294;SDS011;7231;59.370;18.016;2022-11-20T02:06:27;3.73;;;2.00;;
14294;SDS011;7231;59.370;18.016;2022-11-20T02:08:58;2.30;;;1.63;;
14294;SDS011;7231;59.370;18.016;2022-11-20T02:11:27;3.73;;;1.97;;
14294;SDS011;7231;59.370;18.016;2022-11-20T02:13:57;2.63;;;2.10;;
14294;SDS011;7231;59.370;18.016;2022-11-20T02:16:25;3.10;;;1.97;;
14294;SDS011;7231;59.370;18.016;2022-11-20T02:18:56;3.00;;;2.47;;
14294;SDS011;7231;59.370;18.016;2022-11-20T02:21:31;2.90;;;2.10;;
14294;SDS011;7231;59.370;18.016;2022-11-20T02:24:06;2.40;;;1.70;;
14294;SDS011;7231;59.370;18.016;2022-11-20T02:26:39;4.97;;;2.10;;
14294;SDS011;7231;59.370;18.016;2022-11-20T02:29:11;2.93;;;1.70;;
14294;SDS011;7231;59.370;18.016;2022-11-20T02:31:41;1.73;;;1.63;;
14294;SDS011;7231;59.370;18.016;2022-11-20T02:34:10;2.63;;;1.73;;
14294;SDS011;7231;59.370;18.016;2022-11-20T02:36:39;2.00;;;1.80;;
14294;SDS011;7231;59.370;18.016;2022-11-20T02:39:10;1.83;;;1.67;;
14294;SDS011;7231;59.370;18.016;2022-11-20T02:41:43;3.70;;;1.97;;
14294;SDS011;7231;59.370;18.016;2022-11-20T02:44:11;2.93;;;1.60;;
14294;SDS011;7231;59.370;18.016;2022-11-20T02:46:39;2.60;;;1.77;;
14294;SDS011;7231;59.370;18.016;2022-11-20T02:49:07;2.10;;;1.80;;
14294;SDS011;7231;59.370;18.016;2022-11-20T02:51:35;2.23;;;1.70;;
14294;SDS011;7231;59.370;18.016;2022-11-20T02:54:03;3.73;;;1.90;;
14294;SDS011;7231;59.370;18.016;2022-11-20T02:56:32;2.77;;;1.87;;
14294;SDS011;7231;59.370;18.016;2022-11-20T02:59:00;1.93;;;1.73;;
14294;SDS011;7231;59.370;18.016;2022-11-20T03:01:28;1.67;;;1.57;;
14294;SDS011;7231;59.370;18.016;2022-11-20T03:03:56;2.87;;;1.67;;
14294;SDS011;7231;59.370;18.016;2022-11-20T03:06:24;2.73;;;1.70;;
14294;SDS011;7231;59.370;18.016;2022-11-20T03:08:52;1.60;;;1.50;;
14294;SDS011;7231;59.370;18.016;2022-11-20T03:11:20;2.47;;;1.63;;
14294;SDS011;7231;59.370;18.016;2022-11-20T03:13:50;1.97;;;1.70;;
14294;SDS011;7231;59.370;18.016;2022-11-20T03:16:18;2.17;;;1.70;;
14294;SDS011;7231;59.370;18.016;2022-11-20T03:18:48;3.47;;;1.83;;
14294;SDS011;7231;59.370;18.016;2022-11-20T03:21:16;2.17;;;1.80;;
14294;SDS011;7231;59.370;18.016;2022-11-20T03:23:44;2.37;;;1.90;;
14294;SDS011;7231;59.370;18.016;2022-11-20T03:26:13;1.93;;;1.73;;
14294;SDS011;7231;59.370;18.016;2022-11-20T03:28:46;4.20;;;2.13;;
14294;SDS011;7231;59.370;18.016;2022-11-20T03:31:18;2.10;;;1.87;;
14294;SDS011;7231;59.370;18.016;2022-11-20T03:33:47;3.30;;;1.63;;
14294;SDS011;7231;59.370;18.016;2022-11-20T03:36:16;2.23;;;1.80;;
14294;SDS011;7231;59.370;18.016;2022-11-20T03:38:46;2.00;;;1.63;;
14294;SDS011;7231;59.370;18.016;2022-11-20T03:41:15;1.97;;;1.73;;
14294;SDS011;7231;59.370;18.016;2022-11-20T03:43:46;3.10;;;2.17;;
14294;SDS011;7231;59.370;18.016;2022-11-20T03:46:17;2.47;;;1.97;;
14294;SDS011;7231;59.370;18.016;2022-11-20T03:48:45;1.60;;;1.33;;
14294;SDS011;7231;59.370;18.016;2022-11-20T03:51:17;2.33;;;1.70;;
14294;SDS011;7231;59.370;18.016;2022-11-20T03:53:47;3.07;;;1.80;;
14294;SDS011;7231;59.370;18.016;2022-11-20T03:56:16;1.93;;;1.73;;
14294;SDS011;7231;59.370;18.016;2022-11-20T03:58:45;2.27;;;1.97;;
14294;SDS011;7231;59.370;18.016;2022-11-20T04:01:14;1.97;;;1.57;;
14294;SDS011;7231;59.370;18.016;2022-11-20T04:03:46;2.07;;;1.60;;
14294;SDS011;7231;59.370;18.016;2022-11-20T04:06:15;1.83;;;1.50;;
14294;SDS011;7231;59.370;18.016;2022-11-20T04:08:44;2.33;;;1.57;;
14294;SDS011;7231;59.370;18.016;2022-11-20T04:11:19;2.00;;;1.80;;
14294;SDS011;7231;59.370;18.016;2022-11-20T04:13:50;2.40;;;1.60;;
14294;SDS011;7231;59.370;18.016;2022-11-20T04:16:21;1.63;;;1.30;;
14294;SDS011;7231;59.370;18.016;2022-11-20T04:18:51;2.33;;;2.00;;
14294;SDS011;7231;59.370;18.016;2022-11-20T04:21:19;2.30;;;1.50;;
14294;SDS011;7231;59.370;18.016;2022-11-20T04:23:47;3.00;;;1.50;;
14294;SDS011;7231;59.370;18.016;2022-11-20T04:26:15;1.30;;;1.20;;
14294;SDS011;7231;59.370;18.016;2022-11-20T04:28:44;2.63;;;1.63;;
14294;SDS011;7231;59.370;18.016;2022-11-20T04:31:12;2.97;;;1.57;;
14294;SDS011;7231;59.370;18.016;2022-11-20T04:33:43;2.60;;;1.37;;
14294;SDS011;7231;59.370;18.016;2022-11-20T04:36:11;1.77;;;1.63;;
14294;SDS011;7231;59.370;18.016;2022-11-20T04:38:41;3.57;;;1.77;;
14294;SDS011;7231;59.370;18.016;2022-11-20T04:41:11;1.30;;;1.20;;
14294;SDS011;7231;59.370;18.016;2022-11-20T04:43:45;1.97;;;1.50;;
14294;SDS011;7231;59.370;18.016;2022-11-20T04:46:14;3.03;;;1.53;;
14294;SDS011;7231;59.370;18.016;2022-11-20T04:48:44;1.70;;;1.20;;
14294;SDS011;7231;59.370;18.016;2022-11-20T04:51:14;1.97;;;1.40;;
14294;SDS011;7231;59.370;18.016;2022-11-20T04:53:42;3.97;;;1.30;;
14294;SDS011;7231;59.370;18.016;2022-11-20T04:56:11;1.50;;;1.40;;
14294;SDS011;7231;59.370;18.016;2022-11-20T04:58:39;2.20;;;1.20;;
14294;SDS011;7231;59.370;18.016;2022-11-20T05:01:09;1.70;;;1.50;;
14294;SDS011;7231;59.370;18.016;2022-11-20T05:03:39;2.07;;;1.17;;
14294;SDS011;7231;59.370;18.016;2022-11-20T05:06:10;1.60;;;1.23;;
14294;SDS011;7231;59.370;18.016;2022-11-20T05:08:43;1.53;;;1.40;;
14294;SDS011;7231;59.370;18.016;2022-11-20T05:11:11;2.10;;;1.60;;
14294;SDS011;7231;59.370;18.016;2022-11-20T05:13:40;2.00;;;1.63;;
14294;SDS011;7231;59.370;18.016;2022-11-20T05:16:10;2.37;;;1.27;;
14294;SDS011;7231;59.370;18.016;2022-11-20T05:18:40;1.80;;;1.30;;
14294;SDS011;7231;59.370;18.016;2022-11-20T05:21:09;1.77;;;1.40;;
14294;SDS011;7231;59.370;18.016;2022-11-20T05:23:38;2.20;;;1.17;;
14294;SDS011;7231;59.370;18.016;2022-11-20T05:26:11;2.27;;;1.47;;
14294;SDS011;7231;59.370;18.016;2022-11-20T05:28:41;2.23;;;1.20;;
14294;SDS011;7231;59.370;18.016;2022-11-20T05:31:09;1.60;;;1.40;;
14294;SDS011;7231;59.370;18.016;2022-11-20T05:33:39;2.63;;;1.43;;
14294;SDS011;7231;59.370;18.016;2022-11-20T05:36:09;2.30;;;1.50;;
14294;SDS011;7231;59.370;18.016;2022-11-20T05:38:38;1.53;;;1.23;;
14294;SDS011;7231;59.370;18.016;2022-11-20T05:41:07;3.37;;;1.13;;
14294;SDS011;7231;59.370;18.016;2022-11-20T05:43:37;3.07;;;1.40;;
14294;SDS011;7231;59.370;18.016;2022-11-20T05:46:07;1.63;;;1.10;;
14294;SDS011;7231;59.370;18.016;2022-11-20T05:48:36;5.03;;;1.37;;
14294;SDS011;7231;59.370;18.016;2022-11-20T05:51:06;1.20;;;1.10;;
14294;SDS011;7231;59.370;18.016;2022-11-20T05:53:37;2.03;;;1.10;;
14294;SDS011;7231;59.370;18.016;2022-11-20T05:56:14;1.30;;;1.20;;
14294;SDS011;7231;59.370;18.016;2022-11-20T05:58:44;1.30;;;1.20;;
14294;SDS011;7231;59.370;18.016;2022-11-20T06:01:13;2.93;;;1.20;;
14294;SDS011;7231;59.370;18.016;2022-11-20T06:03:43;2.03;;;1.23;;
14294;SDS011;7231;59.370;18.016;2022-11-20T06:06:14;3.00;;;1.27;;
14294;SDS011;7231;59.370;18.016;2022-11-20T06:08:44;3.00;;;1.50;;
14294;SDS011;7231;59.370;18.016;2022-11-20T06:11:12;2.40;;;1.30;;
14294;SDS011;7231;59.370;18.016;2022-11-20T06:13:41;2.13;;;1.27;;
14294;SDS011;7231;59.370;18.016;2022-11-20T06:16:10;1.53;;;1.10;;
14294;SDS011;7231;59.370;18.016;2022-11-20T06:18:40;1.70;;;1.30;;
14294;SDS011;7231;59.370;18.016;2022-11-20T06:21:09;1.90;;;1.30;;
14294;SDS011;7231;59.370;18.016;2022-11-20T06:23:39;1.87;;;1.50;;
14294;SDS011;7231;59.370;18.016;2022-11-20T06:26:10;4.17;;;1.40;;
14294;SDS011;7231;59.370;18.016;2022-11-20T06:28:39;1.30;;;1.13;;
14294;SDS011;7231;59.370;18.016;2022-11-20T06:31:09;1.50;;;1.40;;
14294;SDS011;7231;59.370;18.016;2022-11-20T06:33:38;1.90;;;1.37;;
14294;SDS011;7231;59.370;18.016;2022-11-20T06:36:06;1.77;;;1.33;;
14294;SDS011;7231;59.370;18.016;2022-11-20T06:38:37;2.17;;;1.50;;
14294;SDS011;7231;59.370;18.016;2022-11-20T06:41:05;1.33;;;1.13;;
14294;SDS011;7231;59.370;18.016;2022-11-20T06:43:36;2.17;;;1.33;;
14294;SDS011;7231;59.370;18.016;2022-11-20T06:46:04;3.30;;;1.37;;
14294;SDS011;7231;59.370;18.016;2022-11-20T06:48:32;2.57;;;1.63;;
14294;SDS011;7231;59.370;18.016;2022-11-20T06:51:00;1.30;;;1.20;;
14294;SDS011;7231;59.370;18.016;2022-11-20T06:53:30;2.70;;;1.30;;
14294;SDS011;7231;59.370;18.016;2022-11-20T06:55:58;2.70;;;1.43;;
14294;SDS011;7231;59.370;18.016;2022-11-20T06:58:27;2.10;;;1.33;;
14294;SDS011;7231;59.370;18.016;2022-11-20T07:00:58;2.33;;;1.30;;
14294;SDS011;7231;59.370;18.016;2022-11-20T07:03:27;3.73;;;1.60;;
14294;SDS011;7231;59.370;18.016;2022-11-20T07:05:55;2.07;;;1.40;;
14294;SDS011;7231;59.370;18.016;2022-11-20T07:08:24;2.00;;;1.37;;
14294;SDS011;7231;59.370;18.016;2022-11-20T07:10:52;1.43;;;1.33;;
14294;SDS011;7231;59.370;18.016;2022-11-20T07:13:20;2.87;;;1.20;;
14294;SDS011;7231;59.370;18.016;2022-11-20T07:15:48;2.10;;;1.47;;
14294;SDS011;7231;59.370;18.016;2022-11-20T07:18:18;4.20;;;1.53;;
14294;SDS011;7231;59.370;18.016;2022-11-20T07:20:45;1.40;;;1.30;;
14294;SDS011;7231;59.370;18.016;2022-11-20T07:23:13;2.37;;;1.17;;
14294;SDS011;7231;59.370;18.016;2022-11-20T07:25:41;2.60;;;1.50;;
14294;SDS011;7231;59.370;18.016;2022-11-20T07:28:11;2.70;;;1.80;;
14294;SDS011;7231;59.370;18.016;2022-11-20T07:30:40;1.70;;;1.60;;
14294;SDS011;7231;59.370;18.016;2022-11-20T07:33:07;2.50;;;1.30;;
14294;SDS011;7231;59.370;18.016;2022-11-20T07:35:37;2.07;;;1.30;;
14294;SDS011;7231;59.370;18.016;2022-11-20T07:38:05;2.10;;;1.40;;
14294;SDS011;7231;59.370;18.016;2022-11-20T07:40:33;3.80;;;1.67;;
14294;SDS011;7231;59.370;18.016;2022-11-20T07:43:00;3.43;;;1.93;;
14294;SDS011;7231;59.370;18.016;2022-11-20T07:45:28;4.80;;;1.60;;
14294;SDS011;7231;59.370;18.016;2022-11-20T07:47:56;2.27;;;1.40;;
14294;SDS011;7231;59.370;18.016;2022-11-20T07:50:24;1.40;;;1.30;;
14294;SDS011;7231;59.370;18.016;2022-11-20T07:52:54;4.77;;;1.70;;
14294;SDS011;7231;59.370;18.016;2022-11-20T07:55:29;2.90;;;1.27;;
14294;SDS011;7231;59.370;18.016;2022-11-20T07:57:57;3.87;;;2.00;;
14294;SDS011;7231;59.370;18.016;2022-11-20T08:00:25;2.50;;;1.40;;
14294;SDS011;7231;59.370;18.016;2022-11-20T08:02:54;4.07;;;1.50;;
14294;SDS011;7231;59.370;18.016;2022-11-20T08:05:22;2.00;;;1.40;;
14294;SDS011;7231;59.370;18.016;2022-11-20T08:07:50;2.73;;;1.20;;
14294;SDS011;7231;59.370;18.016;2022-11-20T08:10:20;1.70;;;1.37;;
14294;SDS011;7231;59.370;18.016;2022-11-20T08:12:48;2.33;;;1.40;;
14294;SDS011;7231;59.370;18.016;2022-11-20T08:15:35;1.47;;;1.30;;
14294;SDS011;7231;59.370;18.016;2022-11-20T08:18:04;1.57;;;0.93;;
14294;SDS011;7231;59.370;18.016;2022-11-20T08:20:53;1.87;;;1.40;;
14294;SDS011;7231;59.370;18.016;2022-11-20T08:23:22;3.10;;;1.40;;
14294;SDS011;7231;59.370;18.016;2022-11-20T08:25:51;1.10;;;1.00;;
14294;SDS011;7231;59.370;18.016;2022-11-20T08:28:19;3.40;;;1.10;;
14294;SDS011;7231;59.370;18.016;2022-11-20T08:30:48;2.50;;;1.43;;
14294;SDS011;7231;59.370;18.016;2022-11-20T08:33:17;2.30;;;1.07;;
14294;SDS011;7231;59.370;18.016;2022-11-20T08:35:45;1.27;;;0.90;;
14294;SDS011;7231;59.370;18.016;2022-11-20T08:38:13;2.90;;;1.10;;
14294;SDS011;7231;59.370;18.016;2022-11-20T08:40:41;1.70;;;1.40;;
14294;SDS011;7231;59.370;18.016;2022-11-20T08:43:30;3.80;;;1.10;;
14294;SDS011;7231;59.370;18.016;2022-11-20T08:45:58;2.13;;;1.00;;
14294;SDS011;7231;59.370;18.016;2022-11-20T08:48:26;1.60;;;1.00;;
14294;SDS011;7231;59.370;18.016;2022-11-20T08:50:57;2.33;;;0.90;;
14294;SDS011;7231;59.370;18.016;2022-11-20T08:53:25;4.23;;;1.23;;
14294;SDS011;7231;59.370;18.016;2022-11-20T08:55:53;2.33;;;1.33;;
14294;SDS011;7231;59.370;18.016;2022-11-20T08:58:21;4.40;;;1.00;;
14294;SDS011;7231;59.370;18.016;2022-11-20T09:00:51;1.67;;;1.00;;
14294;SDS011;7231;59.370;18.016;2022-11-20T09:03:19;4.60;;;0.90;;
14294;SDS011;7231;59.370;18.016;2022-11-20T09:05:47;1.90;;;0.87;;
14294;SDS011;7231;59.370;18.016;2022-11-20T09:08:15;1.80;;;1.00;;
14294;SDS011;7231;59.370;18.016;2022-11-20T09:10:43;1.67;;;1.23;;
14294;SDS011;7231;59.370;18.016;2022-11-20T09:13:11;2.30;;;0.90;;
14294;SDS011;7231;59.370;18.016;2022-11-20T09:15:39;2.03;;;0.90;;
14294;SDS011;7231;59.370;18.016;2022-11-20T09:18:08;3.40;;;1.10;;
14294;SDS011;7231;59.370;18.016;2022-11-20T09:20:36;1.27;;;0.80;;
14294;SDS011;7231;59.370;18.016;2022-11-20T09:23:04;4.87;;;1.23;;
14294;SDS011;7231;59.370;18.016;2022-11-20T09:25:32;2.67;;;1.00;;
14294;SDS011;7231;59.370;18.016;2022-11-20T09:28:00;1.67;;;0.73;;
14294;SDS011;7231;59.370;18.016;2022-11-20T09:30:27;2.53;;;0.93;;
14294;SDS011;7231;59.370;18.016;2022-11-20T09:32:55;1.43;;;0.90;;
14294;SDS011;7231;59.370;18.016;2022-11-20T09:35:25;3.50;;;1.07;;
14294;SDS011;7231;59.370;18.016;2022-11-20T09:37:53;2.47;;;1.00;;
14294;SDS011;7231;59.370;18.016;2022-11-20T09:40:21;2.70;;;1.30;;
14294;SDS011;7231;59.370;18.016;2022-11-20T09:42:53;2.73;;;0.90;;
14294;SDS011;7231;59.370;18.016;2022-11-20T09:45:28;2.93;;;1.00;;
14294;SDS011;7231;59.370;18.016;2022-11-20T09:48:10;1.13;;;0.90;;
14294;SDS011;7231;59.370;18.016;2022-11-20T09:50:50;3.10;;;1.10;;
14294;SDS011;7231;59.370;18.016;2022-11-20T09:53:25;2.90;;;1.10;;
14294;SDS011;7231;59.370;18.016;2022-11-20T09:56:00;3.23;;;1.10;;
14294;SDS011;7231;59.370;18.016;2022-11-20T09:58:31;2.40;;;1.13;;
14294;SDS011;7231;59.370;18.016;2022-11-20T10:01:05;1.70;;;1.40;;
14294;SDS011;7231;59.370;18.016;2022-11-20T10:03:41;1.73;;;1.10;;
14294;SDS011;7231;59.370;18.016;2022-11-20T10:06:18;2.63;;;1.30;;
14294;SDS011;7231;59.370;18.016;2022-11-20T10:08:54;2.50;;;1.23;;
14294;SDS011;7231;59.370;18.016;2022-11-20T10:11:30;2.13;;;1.13;;
14294;SDS011;7231;59.370;18.016;2022-11-20T10:14:14;1.33;;;1.20;;
14294;SDS011;7231;59.370;18.016;2022-11-20T10:16:52;1.63;;;1.07;;
14294;SDS011;7231;59.370;18.016;2022-11-20T10:19:40;3.50;;;1.20;;
14294;SDS011;7231;59.370;18.016;2022-11-20T10:22:20;2.30;;;1.10;;
14294;SDS011;7231;59.370;18.016;2022-11-20T10:25:00;3.47;;;1.23;;
14294;SDS011;7231;59.370;18.016;2022-11-20T10:27:48;2.20;;;1.30;;
14294;SDS011;7231;59.370;18.016;2022-11-20T10:30:28;4.53;;;1.27;;
14294;SDS011;7231;59.370;18.016;2022-11-20T10:32:58;4.53;;;1.50;;
14294;SDS011;7231;59.370;18.016;2022-11-20T10:35:33;1.70;;;1.00;;
14294;SDS011;7231;59.370;18.016;2022-11-20T10:38:08;2.73;;;1.23;;
14294;SDS011;7231;59.370;18.016;2022-11-20T10:40:43;1.67;;;1.20;;
14294;SDS011;7231;59.370;18.016;2022-11-20T10:43:16;2.10;;;1.00;;
14294;SDS011;7231;59.370;18.016;2022-11-20T10:45:49;2.73;;;1.20;;
14294;SDS011;7231;59.370;18.016;2022-11-20T10:48:23;1.33;;;0.93;;
14294;SDS011;7231;59.370;18.016;2022-11-20T10:51:01;2.73;;;1.63;;
14294;SDS011;7231;59.370;18.016;2022-11-20T10:53:50;2.30;;;1.37;;
14294;SDS011;7231;59.370;18.016;2022-11-20T10:56:23;2.10;;;1.20;;
14294;SDS011;7231;59.370;18.016;2022-11-20T10:59:03;2.93;;;1.20;;
14294;SDS011;7231;59.370;18.016;2022-11-20T11:01:40;2.77;;;0.80;;
14294;SDS011;7231;59.370;18.016;2022-11-20T11:04:15;1.00;;;0.80;;
14294;SDS011;7231;59.370;18.016;2022-11-20T11:06:54;1.00;;;0.90;;
14294;SDS011;7231;59.370;18.016;2022-11-20T11:09:30;2.17;;;1.00;;
14294;SDS011;7231;59.370;18.016;2022-11-20T11:12:01;1.17;;;0.80;;
14294;SDS011;7231;59.370;18.016;2022-11-20T11:14:41;1.63;;;1.00;;
14294;SDS011;7231;59.370;18.016;2022-11-20T11:17:21;1.37;;;0.97;;
14294;SDS011;7231;59.370;18.016;2022-11-20T11:19:56;2.20;;;1.20;;
14294;SDS011;7231;59.370;18.016;2022-11-20T11:22:28;1.67;;;1.13;;
14294;SDS011;7231;59.370;18.016;2022-11-20T11:24:59;1.83;;;1.30;;
14294;SDS011;7231;59.370;18.016;2022-11-20T11:27:28;1.40;;;1.00;;
14294;SDS011;7231;59.370;18.016;2022-11-20T11:30:12;1.53;;;1.20;;
14294;SDS011;7231;59.370;18.016;2022-11-20T11:32:41;2.23;;;1.10;;
14294;SDS011;7231;59.370;18.016;2022-11-20T11:35:20;2.40;;;1.43;;
14294;SDS011;7231;59.370;18.016;2022-11-20T11:37:49;3.13;;;1.17;;
14294;SDS011;7231;59.370;18.016;2022-11-20T11:40:22;3.47;;;1.27;;
14294;SDS011;7231;59.370;18.016;2022-11-20T11:42:54;2.60;;;1.10;;
14294;SDS011;7231;59.370;18.016;2022-11-20T11:45:25;1.47;;;0.90;;
14294;SDS011;7231;59.370;18.016;2022-11-20T11:47:53;2.13;;;1.27;;
14294;SDS011;7231;59.370;18.016;2022-11-20T11:50:24;2.43;;;1.27;;
14294;SDS011;7231;59.370;18.016;2022-11-20T11:52:55;2.87;;;1.20;;
14294;SDS011;7231;59.370;18.016;2022-11-20T11:55:31;1.40;;;1.00;;
14294;SDS011;7231;59.370;18.016;2022-11-20T11:58:10;3.00;;;1.10;;
14294;SDS011;7231;59.370;18.016;2022-11-20T12:00:45;3.50;;;1.20;;
14294;SDS011;7231;59.370;18.016;2022-11-20T12:03:20;1.90;;;1.07;;
14294;SDS011;7231;59.370;18.016;2022-11-20T12:05:55;1.63;;;1.00;;
14294;SDS011;7231;59.370;18.016;2022-11-20T12:08:27;2.47;;;0.87;;
14294;SDS011;7231;59.370;18.016;2022-11-20T12:11:03;1.10;;;0.80;;
14294;SDS011;7231;59.370;18.016;2022-11-20T12:13:40;1.60;;;0.87;;
14294;SDS011;7231;59.370;18.016;2022-11-20T12:16:14;3.60;;;1.10;;
14294;SDS011;7231;59.370;18.016;2022-11-20T12:18:48;1.90;;;0.93;;
14294;SDS011;7231;59.370;18.016;2022-11-20T12:21:18;1.97;;;1.13;;
14294;SDS011;7231;59.370;18.016;2022-11-20T12:23:52;1.57;;;1.00;;
14294;SDS011;7231;59.370;18.016;2022-11-20T12:26:31;1.93;;;1.20;;
14294;SDS011;7231;59.370;18.016;2022-11-20T12:29:11;2.83;;;1.00;;
14294;SDS011;7231;59.370;18.016;2022-11-20T12:32:01;1.77;;;1.50;;
14294;SDS011;7231;59.370;18.016;2022-11-20T12:34:47;1.37;;;0.97;;
14294;SDS011;7231;59.370;18.016;2022-11-20T12:37:28;1.27;;;0.90;;
14294;SDS011;7231;59.370;18.016;2022-11-20T12:40:11;1.33;;;1.00;;
14294;SDS011;7231;59.370;18.016;2022-11-20T12:42:51;3.80;;;1.03;;
14294;SDS011;7231;59.370;18.016;2022-11-20T12:45:58;1.50;;;1.00;;
14294;SDS011;7231;59.370;18.016;2022-11-20T12:48:42;1.87;;;0.83;;
14294;SDS011;7231;59.370;18.016;2022-11-20T12:51:34;1.53;;;1.00;;
14294;SDS011;7231;59.370;18.016;2022-11-20T12:54:31;5.00;;;0.70;;
14294;SDS011;7231;59.370;18.016;2022-11-20T12:57:11;4.37;;;1.53;;
14294;SDS011;7231;59.370;18.016;2022-11-20T12:59:53;3.90;;;1.10;;
14294;SDS011;7231;59.370;18.016;2022-11-20T13:02:39;1.87;;;1.23;;
14294;SDS011;7231;59.370;18.016;2022-11-20T13:05:19;2.43;;;1.33;;
14294;SDS011;7231;59.370;18.016;2022-11-20T13:07:51;3.30;;;1.90;;
14294;SDS011;7231;59.370;18.016;2022-11-20T13:10:23;3.37;;;1.60;;
14294;SDS011;7231;59.370;18.016;2022-11-20T13:13:00;2.80;;;1.67;;
14294;SDS011;7231;59.370;18.016;2022-11-20T13:15:39;2.57;;;1.30;;
14294;SDS011;7231;59.370;18.016;2022-11-20T13:18:15;4.47;;;2.00;;
14294;SDS011;7231;59.370;18.016;2022-11-20T13:20:45;4.60;;;2.10;;
14294;SDS011;7231;59.370;18.016;2022-11-20T13:23:22;5.60;;;2.27;;
14294;SDS011;7231;59.370;18.016;2022-11-20T13:26:02;2.50;;;2.20;;
14294;SDS011;7231;59.370;18.016;2022-11-20T13:28:34;4.37;;;2.20;;
14294;SDS011;7231;59.370;18.016;2022-11-20T13:31:04;3.87;;;2.30;;
14294;SDS011;7231;59.370;18.016;2022-11-20T13:33:37;6.17;;;2.30;;
14294;SDS011;7231;59.370;18.016;2022-11-20T13:36:07;4.17;;;2.20;;
14294;SDS011;7231;59.370;18.016;2022-11-20T13:38:48;4.00;;;2.10;;
14294;SDS011;7231;59.370;18.016;2022-11-20T13:41:23;3.73;;;2.20;;
14294;SDS011;7231;59.370;18.016;2022-11-20T13:43:57;2.60;;;1.80;;
14294;SDS011;7231;59.370;18.016;2022-11-20T13:46:39;3.37;;;2.13;;
14294;SDS011;7231;59.370;18.016;2022-11-20T13:49:16;5.90;;;2.07;;
14294;SDS011;7231;59.370;18.016;2022-11-20T13:51:46;3.80;;;1.90;;
14294;SDS011;7231;59.370;18.016;2022-11-20T13:57:26;2.80;;;1.70;;
14294;SDS011;7231;59.370;18.016;2022-11-20T14:00:22;3.50;;;2.03;;
14294;SDS011;7231;59.370;18.016;2022-11-20T14:02:59;3.47;;;2.00;;
14294;SDS011;7231;59.370;18.016;2022-11-20T14:05:36;5.07;;;1.70;;
14294;SDS011;7231;59.370;18.016;2022-11-20T14:08:12;3.57;;;1.70;;
14294;SDS011;7231;59.370;18.016;2022-11-20T14:10:50;3.17;;;2.03;;
14294;SDS011;7231;59.370;18.016;2022-11-20T14:13:19;7.00;;;2.00;;
14294;SDS011;7231;59.370;18.016;2022-11-20T14:15:48;4.77;;;2.07;;
14294;SDS011;7231;59.370;18.016;2022-11-20T14:18:26;2.30;;;1.40;;
14294;SDS011;7231;59.370;18.016;2022-11-20T14:20:54;3.93;;;1.70;;
14294;SDS011;7231;59.370;18.016;2022-11-20T14:23:26;5.13;;;1.67;;
14294;SDS011;7231;59.370;18.016;2022-11-20T14:25:56;5.30;;;1.30;;
14294;SDS011;7231;59.370;18.016;2022-11-20T14:28:25;2.83;;;1.40;;
14294;SDS011;7231;59.370;18.016;2022-11-20T14:30:54;2.67;;;1.10;;
14294;SDS011;7231;59.370;18.016;2022-11-20T14:33:23;1.70;;;1.50;;
14294;SDS011;7231;59.370;18.016;2022-11-20T14:35:54;3.47;;;1.37;;
14294;SDS011;7231;59.370;18.016;2022-11-20T14:38:24;2.03;;;1.20;;
14294;SDS011;7231;59.370;18.016;2022-11-20T14:41:05;2.80;;;1.30;;
14294;SDS011;7231;59.370;18.016;2022-11-20T14:43:33;2.30;;;1.57;;
14294;SDS011;7231;59.370;18.016;2022-11-20T14:46:02;2.03;;;1.30;;
14294;SDS011;7231;59.370;18.016;2022-11-20T14:48:33;3.40;;;1.60;;
14294;SDS011;7231;59.370;18.016;2022-11-20T14:51:05;3.27;;;1.90;;
14294;SDS011;7231;59.370;18.016;2022-11-20T14:53:36;1.90;;;1.37;;
14294;SDS011;7231;59.370;18.016;2022-11-20T14:56:04;2.20;;;1.37;;
14294;SDS011;7231;59.370;18.016;2022-11-20T14:58:32;3.13;;;1.60;;
14294;SDS011;7231;59.370;18.016;2022-11-20T15:01:02;4.37;;;1.93;;
14294;SDS011;7231;59.370;18.016;2022-11-20T15:03:35;4.20;;;1.63;;
14294;SDS011;7231;59.370;18.016;2022-11-20T15:06:04;2.47;;;1.80;;
14294;SDS011;7231;59.370;18.016;2022-11-20T15:08:34;2.70;;;2.00;;
14294;SDS011;7231;59.370;18.016;2022-11-20T15:11:02;3.13;;;2.17;;
14294;SDS011;7231;59.370;18.016;2022-11-20T15:13:31;3.73;;;1.73;;
14294;SDS011;7231;59.370;18.016;2022-11-20T15:16:00;4.30;;;2.17;;
14294;SDS011;7231;59.370;18.016;2022-11-20T15:18:30;4.47;;;2.00;;